sensor_id;sensor_type;location;lat;lon;timestamp;temperature;humidity
19192;DHT22;9728;48.194;16.346;2023-06-14T00:00:29;24.40;40.10
19192;DHT22;9728;48.194;16.346;2023-06-14T00:05:33;24.40;40.20
19192;DHT22;9728;48.194;16.346;2023-06-14T00:10:42;24.30;40.30
19192;DHT22;9728;48.194;16.346;2023-06-14T00:15:46;24.20;40.60
19192;DHT22;9728;48.194;16.346;2023-06-14T00:20:50;24.20;40.50
19192;DHT22;9728;48.194;16.346;2023-06-14T00:25:55;24.20;40.70
19192;DHT22;9728;48.194;16.346;2023-06-14T00:30:58;24.00;40.80
19192;DHT22;9728;48.194;16.346;2023-06-14T00:36:03;24.00;40.80
19192;DHT22;9728;48.194;16.346;2023-06-14T00:41:08;24.00;41.00
19192;DHT22;9728;48.194;16.346;2023-06-14T00:46:11;23.90;41.30
19192;DHT22;9728;48.194;16.346;2023-06-14T00:51:15;23.80;41.30
19192;DHT22;9728;48.194;16.346;2023-06-14T00:56:19;23.80;41.40
19192;DHT22;9728;48.194;16.346;2023-06-14T01:01:25;23.70;41.70
19192;DHT22;9728;48.194;16.346;2023-06-14T01:06:33;23.70;41.70
19192;DHT22;9728;48.194;16.346;2023-06-14T01:11:49;23.60;41.80
19192;DHT22;9728;48.194;16.346;2023-06-14T01:16:54;23.60;42.30
19192;DHT22;9728;48.194;16.346;2023-06-14T01:22:00;23.50;41.80
19192;DHT22;9728;48.194;16.346;2023-06-14T01:27:06;23.50;42.30
19192;DHT22;9728;48.194;16.346;2023-06-14T01:32:10;23.40;42.30
19192;DHT22;9728;48.194;16.346;2023-06-14T01:37:14;23.40;42.10
19192;DHT22;9728;48.194;16.346;2023-06-14T01:42:20;23.30;42.20
19192;DHT22;9728;48.194;16.346;2023-06-14T01:47:24;23.30;42.50
19192;DHT22;9728;48.194;16.346;2023-06-14T01:52:28;23.20;42.40
19192;DHT22;9728;48.194;16.346;2023-06-14T01:57:32;23.20;42.50
19192;DHT22;9728;48.194;16.346;2023-06-14T02:02:36;23.20;42.80
19192;DHT22;9728;48.194;16.346;2023-06-14T02:07:39;23.10;42.70
19192;DHT22;9728;48.194;16.346;2023-06-14T02:12:44;23.10;42.80
19192;DHT22;9728;48.194;16.346;2023-06-14T02:17:48;23.10;43.00
19192;DHT22;9728;48.194;16.346;2023-06-14T02:22:53;23.00;42.90
19192;DHT22;9728;48.194;16.346;2023-06-14T02:27:58;23.00;43.00
19192;DHT22;9728;48.194;16.346;2023-06-14T02:33:01;23.00;43.30
19192;DHT22;9728;48.194;16.346;2023-06-14T02:38:07;22.90;43.10
19192;DHT22;9728;48.194;16.346;2023-06-14T02:43:11;22.90;43.20
19192;DHT22;9728;48.194;16.346;2023-06-14T02:48:15;22.90;43.30
19192;DHT22;9728;48.194;16.346;2023-06-14T02:53:18;22.80;43.30
19192;DHT22;9728;48.194;16.346;2023-06-14T02:58:23;22.80;43.30
19192;DHT22;9728;48.194;16.346;2023-06-14T03:03:27;22.80;43.60
19192;DHT22;9728;48.194;16.346;2023-06-14T03:08:32;22.80;43.50
19192;DHT22;9728;48.194;16.346;2023-06-14T03:13:46;22.80;43.60
19192;DHT22;9728;48.194;16.346;2023-06-14T03:18:51;22.70;43.80
19192;DHT22;9728;48.194;16.346;2023-06-14T03:23:55;22.70;43.80
19192;DHT22;9728;48.194;16.346;2023-06-14T03:29:01;22.70;44.30
19192;DHT22;9728;48.194;16.346;2023-06-14T03:34:05;22.70;44.80
19192;DHT22;9728;48.194;16.346;2023-06-14T03:39:09;22.80;44.80
19192;DHT22;9728;48.194;16.346;2023-06-14T03:44:17;23.00;44.60
19192;DHT22;9728;48.194;16.346;2023-06-14T03:49:21;23.00;44.60
19192;DHT22;9728;48.194;16.346;2023-06-14T03:54:25;23.10;44.30
19192;DHT22;9728;48.194;16.346;2023-06-14T03:59:51;23.10;44.50
19192;DHT22;9728;48.194;16.346;2023-06-14T04:04:54;23.10;44.70
19192;DHT22;9728;48.194;16.346;2023-06-14T04:09:58;23.10;44.70
19192;DHT22;9728;48.194;16.346;2023-06-14T04:15:03;23.20;44.70
19192;DHT22;9728;48.194;16.346;2023-06-14T04:20:22;23.20;45.10
19192;DHT22;9728;48.194;16.346;2023-06-14T04:25:26;23.30;44.80
19192;DHT22;9728;48.194;16.346;2023-06-14T04:30:34;23.30;44.50
19192;DHT22;9728;48.194;16.346;2023-06-14T04:35:41;23.30;44.40
19192;DHT22;9728;48.194;16.346;2023-06-14T04:40:45;23.30;44.20
19192;DHT22;9728;48.194;16.346;2023-06-14T04:45:53;23.30;44.10
19192;DHT22;9728;48.194;16.346;2023-06-14T04:51:01;23.20;44.20
19192;DHT22;9728;48.194;16.346;2023-06-14T04:56:06;23.20;44.20
19192;DHT22;9728;48.194;16.346;2023-06-14T05:01:11;23.20;44.20
19192;DHT22;9728;48.194;16.346;2023-06-14T05:06:15;23.20;44.30
19192;DHT22;9728;48.194;16.346;2023-06-14T05:11:20;23.20;44.30
19192;DHT22;9728;48.194;16.346;2023-06-14T05:16:27;23.20;44.30
19192;DHT22;9728;48.194;16.346;2023-06-14T05:21:31;23.20;44.50
19192;DHT22;9728;48.194;16.346;2023-06-14T05:26:42;23.20;44.50
19192;DHT22;9728;48.194;16.346;2023-06-14T05:31:47;23.20;45.70
19192;DHT22;9728;48.194;16.346;2023-06-14T05:36:50;23.50;46.60
19192;DHT22;9728;48.194;16.346;2023-06-14T05:41:53;23.80;46.70
19192;DHT22;9728;48.194;16.346;2023-06-14T05:46:58;24.20;46.80
19192;DHT22;9728;48.194;16.346;2023-06-14T05:52:03;24.60;47.20
19192;DHT22;9728;48.194;16.346;2023-06-14T05:57:07;25.00;46.70
19192;DHT22;9728;48.194;16.346;2023-06-14T06:02:11;25.50;46.30
19192;DHT22;9728;48.194;16.346;2023-06-14T06:07:15;25.80;45.60
19192;DHT22;9728;48.194;16.346;2023-06-14T06:12:18;26.10;45.10
19192;DHT22;9728;48.194;16.346;2023-06-14T06:17:23;26.40;44.70
19192;DHT22;9728;48.194;16.346;2023-06-14T06:22:26;26.60;43.70
19192;DHT22;9728;48.194;16.346;2023-06-14T06:27:30;26.70;43.10
19192;DHT22;9728;48.194;16.346;2023-06-14T06:32:34;26.70;42.60
19192;DHT22;9728;48.194;16.346;2023-06-14T06:37:38;26.70;42.20
19192;DHT22;9728;48.194;16.346;2023-06-14T06:42:41;26.70;41.90
19192;DHT22;9728;48.194;16.346;2023-06-14T06:47:48;26.60;41.70
19192;DHT22;9728;48.194;16.346;2023-06-14T06:52:52;26.50;41.60
19192;DHT22;9728;48.194;16.346;2023-06-14T06:57:56;26.40;41.60
19192;DHT22;9728;48.194;16.346;2023-06-14T07:03:01;26.30;41.60
19192;DHT22;9728;48.194;16.346;2023-06-14T07:08:06;26.20;41.90
19192;DHT22;9728;48.194;16.346;2023-06-14T07:13:09;26.10;41.80
19192;DHT22;9728;48.194;16.346;2023-06-14T07:18:15;26.00;41.80
19192;DHT22;9728;48.194;16.346;2023-06-14T07:23:18;25.90;41.80
19192;DHT22;9728;48.194;16.346;2023-06-14T07:28:22;25.90;42.10
19192;DHT22;9728;48.194;16.346;2023-06-14T07:33:27;25.80;42.30
19192;DHT22;9728;48.194;16.346;2023-06-14T07:38:30;25.80;42.80
19192;DHT22;9728;48.194;16.346;2023-06-14T07:43:34;25.90;43.00
19192;DHT22;9728;48.194;16.346;2023-06-14T07:48:39;25.90;42.50
19192;DHT22;9728;48.194;16.346;2023-06-14T07:53:42;25.90;43.00
19192;DHT22;9728;48.194;16.346;2023-06-14T07:58:46;26.00;42.20
19192;DHT22;9728;48.194;16.346;2023-06-14T08:03:51;26.00;42.20
19192;DHT22;9728;48.194;16.346;2023-06-14T08:08:54;26.00;42.20
19192;DHT22;9728;48.194;16.346;2023-06-14T08:13:58;26.00;42.60
19192;DHT22;9728;48.194;16.346;2023-06-14T08:19:03;26.10;43.00
19192;DHT22;9728;48.194;16.346;2023-06-14T08:24:07;26.20;43.50
19192;DHT22;9728;48.194;16.346;2023-06-14T08:29:10;26.40;43.60
19192;DHT22;9728;48.194;16.346;2023-06-14T08:34:15;26.70;43.80
19192;DHT22;9728;48.194;16.346;2023-06-14T08:39:18;27.00;43.20
19192;DHT22;9728;48.194;16.346;2023-06-14T08:44:22;27.20;43.00
19192;DHT22;9728;48.194;16.346;2023-06-14T08:49:27;27.40;42.80
19192;DHT22;9728;48.194;16.346;2023-06-14T08:54:31;27.60;42.90
19192;DHT22;9728;48.194;16.346;2023-06-14T08:59:43;27.80;42.90
19192;DHT22;9728;48.194;16.346;2023-06-14T09:04:50;28.00;42.50
19192;DHT22;9728;48.194;16.346;2023-06-14T09:10:07;28.20;42.50
19192;DHT22;9728;48.194;16.346;2023-06-14T09:15:11;28.30;42.80
19192;DHT22;9728;48.194;16.346;2023-06-14T09:20:17;28.50;42.20
19192;DHT22;9728;48.194;16.346;2023-06-14T09:25:21;28.60;41.80
19192;DHT22;9728;48.194;16.346;2023-06-14T09:30:40;28.80;41.60
19192;DHT22;9728;48.194;16.346;2023-06-14T09:35:50;29.10;41.40
19192;DHT22;9728;48.194;16.346;2023-06-14T09:40:58;29.10;41.00
19192;DHT22;9728;48.194;16.346;2023-06-14T09:46:03;29.30;40.90
19192;DHT22;9728;48.194;16.346;2023-06-14T09:51:10;29.40;40.80
19192;DHT22;9728;48.194;16.346;2023-06-14T09:56:22;29.50;40.00
19192;DHT22;9728;48.194;16.346;2023-06-14T10:01:30;29.70;40.10
19192;DHT22;9728;48.194;16.346;2023-06-14T10:06:37;29.80;40.20
19192;DHT22;9728;48.194;16.346;2023-06-14T10:11:42;29.90;39.40
19192;DHT22;9728;48.194;16.346;2023-06-14T10:16:52;30.10;39.70
19192;DHT22;9728;48.194;16.346;2023-06-14T10:22:02;30.30;39.30
19192;DHT22;9728;48.194;16.346;2023-06-14T10:27:07;30.40;39.40
19192;DHT22;9728;48.194;16.346;2023-06-14T10:32:12;30.50;38.90
19192;DHT22;9728;48.194;16.346;2023-06-14T10:37:17;30.60;38.80
19192;DHT22;9728;48.194;16.346;2023-06-14T10:42:20;30.60;38.60
19192;DHT22;9728;48.194;16.346;2023-06-14T10:47:26;30.60;38.00
19192;DHT22;9728;48.194;16.346;2023-06-14T10:52:34;30.50;38.10
19192;DHT22;9728;48.194;16.346;2023-06-14T10:57:39;30.50;37.40
19192;DHT22;9728;48.194;16.346;2023-06-14T11:02:52;30.40;38.10
19192;DHT22;9728;48.194;16.346;2023-06-14T11:08:20;30.50;37.50
19192;DHT22;9728;48.194;16.346;2023-06-14T11:13:27;30.40;37.50
19192;DHT22;9728;48.194;16.346;2023-06-14T11:18:33;30.40;38.00
19192;DHT22;9728;48.194;16.346;2023-06-14T11:23:38;30.50;37.90
19192;DHT22;9728;48.194;16.346;2023-06-14T11:28:42;30.50;37.50
19192;DHT22;9728;48.194;16.346;2023-06-14T11:33:50;30.60;37.90
19192;DHT22;9728;48.194;16.346;2023-06-14T11:38:59;30.60;37.20
19192;DHT22;9728;48.194;16.346;2023-06-14T11:44:04;30.60;37.20
19192;DHT22;9728;48.194;16.346;2023-06-14T11:49:08;30.60;36.80
19192;DHT22;9728;48.194;16.346;2023-06-14T11:54:14;30.60;37.00
19192;DHT22;9728;48.194;16.346;2023-06-14T11:59:18;30.50;36.90
19192;DHT22;9728;48.194;16.346;2023-06-14T12:04:24;30.50;36.90
19192;DHT22;9728;48.194;16.346;2023-06-14T12:09:31;30.40;36.40
19192;DHT22;9728;48.194;16.346;2023-06-14T12:14:35;30.40;36.70
19192;DHT22;9728;48.194;16.346;2023-06-14T12:19:42;30.40;37.00
19192;DHT22;9728;48.194;16.346;2023-06-14T12:24:47;30.40;37.00
19192;DHT22;9728;48.194;16.346;2023-06-14T12:29:59;30.40;37.40
19192;DHT22;9728;48.194;16.346;2023-06-14T12:35:03;30.40;37.10
19192;DHT22;9728;48.194;16.346;2023-06-14T12:40:10;30.50;37.60
19192;DHT22;9728;48.194;16.346;2023-06-14T12:45:13;30.60;36.60
19192;DHT22;9728;48.194;16.346;2023-06-14T12:50:17;30.70;36.70
19192;DHT22;9728;48.194;16.346;2023-06-14T12:55:24;30.70;36.60
19192;DHT22;9728;48.194;16.346;2023-06-14T13:00:27;30.90;36.60
19192;DHT22;9728;48.194;16.346;2023-06-14T13:05:32;30.90;36.40
19192;DHT22;9728;48.194;16.346;2023-06-14T13:10:37;31.10;36.10
19192;DHT22;9728;48.194;16.346;2023-06-14T13:15:40;31.10;35.80
19192;DHT22;9728;48.194;16.346;2023-06-14T13:20:45;31.10;36.10
19192;DHT22;9728;48.194;16.346;2023-06-14T13:25:49;31.10;35.90
19192;DHT22;9728;48.194;16.346;2023-06-14T13:30:53;31.10;35.40
19192;DHT22;9728;48.194;16.346;2023-06-14T13:35:57;31.00;35.10
19192;DHT22;9728;48.194;16.346;2023-06-14T13:41:02;30.90;34.90
19192;DHT22;9728;48.194;16.346;2023-06-14T13:46:05;30.70;35.00
19192;DHT22;9728;48.194;16.346;2023-06-14T13:51:09;30.60;35.40
19192;DHT22;9728;48.194;16.346;2023-06-14T13:56:15;30.50;35.50
19192;DHT22;9728;48.194;16.346;2023-06-14T14:01:18;30.40;36.00
19192;DHT22;9728;48.194;16.346;2023-06-14T14:06:22;30.30;36.00
19192;DHT22;9728;48.194;16.346;2023-06-14T14:11:27;30.30;35.90
19192;DHT22;9728;48.194;16.346;2023-06-14T14:16:35;30.20;35.90
19192;DHT22;9728;48.194;16.346;2023-06-14T14:21:39;30.30;36.00
19192;DHT22;9728;48.194;16.346;2023-06-14T14:26:44;30.30;35.90
19192;DHT22;9728;48.194;16.346;2023-06-14T14:31:49;30.20;35.90
19192;DHT22;9728;48.194;16.346;2023-06-14T14:36:53;30.30;36.00
19192;DHT22;9728;48.194;16.346;2023-06-14T14:41:58;30.30;35.90
19192;DHT22;9728;48.194;16.346;2023-06-14T14:47:01;30.40;35.90
19192;DHT22;9728;48.194;16.346;2023-06-14T14:52:06;30.40;35.90
19192;DHT22;9728;48.194;16.346;2023-06-14T14:57:17;30.50;35.90
19192;DHT22;9728;48.194;16.346;2023-06-14T15:02:20;30.50;36.00
19192;DHT22;9728;48.194;16.346;2023-06-14T15:07:25;30.50;36.10
19192;DHT22;9728;48.194;16.346;2023-06-14T15:12:30;30.50;36.20
19192;DHT22;9728;48.194;16.346;2023-06-14T15:17:33;30.50;35.90
19192;DHT22;9728;48.194;16.346;2023-06-14T15:22:37;30.40;36.00
19192;DHT22;9728;48.194;16.346;2023-06-14T15:27:41;30.40;36.00
19192;DHT22;9728;48.194;16.346;2023-06-14T15:32:45;30.30;36.00
19192;DHT22;9728;48.194;16.346;2023-06-14T15:37:48;30.30;36.00
19192;DHT22;9728;48.194;16.346;2023-06-14T15:42:53;30.30;36.20
19192;DHT22;9728;48.194;16.346;2023-06-14T15:47:57;30.20;36.30
19192;DHT22;9728;48.194;16.346;2023-06-14T15:53:02;30.20;36.30
19192;DHT22;9728;48.194;16.346;2023-06-14T15:58:06;30.20;36.40
19192;DHT22;9728;48.194;16.346;2023-06-14T16:03:10;30.20;36.40
19192;DHT22;9728;48.194;16.346;2023-06-14T16:08:14;30.10;36.10
19192;DHT22;9728;48.194;16.346;2023-06-14T16:13:34;30.10;36.30
19192;DHT22;9728;48.194;16.346;2023-06-14T16:18:37;30.00;35.80
19192;DHT22;9728;48.194;16.346;2023-06-14T16:23:41;30.00;35.70
19192;DHT22;9728;48.194;16.346;2023-06-14T16:28:46;29.90;35.50
19192;DHT22;9728;48.194;16.346;2023-06-14T16:33:49;29.70;35.30
19192;DHT22;9728;48.194;16.346;2023-06-14T16:38:56;29.70;35.60
19192;DHT22;9728;48.194;16.346;2023-06-14T16:44:02;29.50;36.00
19192;DHT22;9728;48.194;16.346;2023-06-14T16:49:06;29.40;36.60
19192;DHT22;9728;48.194;16.346;2023-06-14T16:54:10;29.30;37.70
19192;DHT22;9728;48.194;16.346;2023-06-14T16:59:15;29.20;36.90
19192;DHT22;9728;48.194;16.346;2023-06-14T17:04:18;29.20;37.00
19192;DHT22;9728;48.194;16.346;2023-06-14T17:09:22;29.10;37.00
19192;DHT22;9728;48.194;16.346;2023-06-14T17:14:26;29.00;37.00
19192;DHT22;9728;48.194;16.346;2023-06-14T17:19:30;28.90;37.00
19192;DHT22;9728;48.194;16.346;2023-06-14T17:24:33;28.90;37.10
19192;DHT22;9728;48.194;16.346;2023-06-14T17:29:38;28.80;37.10
19192;DHT22;9728;48.194;16.346;2023-06-14T17:34:42;28.60;37.10
19192;DHT22;9728;48.194;16.346;2023-06-14T17:39:46;28.50;37.10
19192;DHT22;9728;48.194;16.346;2023-06-14T17:44:51;28.40;37.20
19192;DHT22;9728;48.194;16.346;2023-06-14T17:49:57;28.30;37.10
19192;DHT22;9728;48.194;16.346;2023-06-14T17:55:03;28.20;37.20
19192;DHT22;9728;48.194;16.346;2023-06-14T18:00:10;28.10;37.30
19192;DHT22;9728;48.194;16.346;2023-06-14T18:05:14;28.00;37.60
19192;DHT22;9728;48.194;16.346;2023-06-14T18:10:17;27.90;37.40
19192;DHT22;9728;48.194;16.346;2023-06-14T18:15:22;27.90;37.60
19192;DHT22;9728;48.194;16.346;2023-06-14T18:20:25;27.80;39.20
19192;DHT22;9728;48.194;16.346;2023-06-14T18:25:30;27.80;38.90
19192;DHT22;9728;48.194;16.346;2023-06-14T18:30:35;27.90;38.70
19192;DHT22;9728;48.194;16.346;2023-06-14T18:35:39;27.90;38.60
19192;DHT22;9728;48.194;16.346;2023-06-14T18:40:42;27.90;38.40
19192;DHT22;9728;48.194;16.346;2023-06-14T18:45:47;27.80;38.30
19192;DHT22;9728;48.194;16.346;2023-06-14T18:50:51;27.80;38.30
19192;DHT22;9728;48.194;16.346;2023-06-14T18:55:55;27.70;38.20
19192;DHT22;9728;48.194;16.346;2023-06-14T19:00:59;27.70;39.60
19192;DHT22;9728;48.194;16.346;2023-06-14T19:06:03;27.70;40.20
19192;DHT22;9728;48.194;16.346;2023-06-14T19:11:07;27.70;40.50
19192;DHT22;9728;48.194;16.346;2023-06-14T19:16:13;27.90;40.60
19192;DHT22;9728;48.194;16.346;2023-06-14T19:21:16;28.00;40.70
19192;DHT22;9728;48.194;16.346;2023-06-14T19:26:20;28.20;40.70
19192;DHT22;9728;48.194;16.346;2023-06-14T19:31:25;28.30;41.20
19192;DHT22;9728;48.194;16.346;2023-06-14T19:36:28;28.40;43.60
19192;DHT22;9728;48.194;16.346;2023-06-14T19:41:31;28.50;42.90
19192;DHT22;9728;48.194;16.346;2023-06-14T19:46:37;28.60;41.40
19192;DHT22;9728;48.194;16.346;2023-06-14T19:51:43;28.70;40.20
19192;DHT22;9728;48.194;16.346;2023-06-14T19:56:46;28.70;39.70
19192;DHT22;9728;48.194;16.346;2023-06-14T20:01:51;28.60;39.30
19192;DHT22;9728;48.194;16.346;2023-06-14T20:06:55;28.40;39.00
19192;DHT22;9728;48.194;16.346;2023-06-14T20:12:00;28.30;39.00
19192;DHT22;9728;48.194;16.346;2023-06-14T20:17:05;28.10;38.90
19192;DHT22;9728;48.194;16.346;2023-06-14T20:22:09;28.00;39.10
19192;DHT22;9728;48.194;16.346;2023-06-14T20:27:12;27.80;39.10
19192;DHT22;9728;48.194;16.346;2023-06-14T20:32:17;27.70;39.30
19192;DHT22;9728;48.194;16.346;2023-06-14T20:37:20;27.60;39.40
19192;DHT22;9728;48.194;16.346;2023-06-14T20:42:24;27.40;39.40
19192;DHT22;9728;48.194;16.346;2023-06-14T20:47:33;27.30;39.60
19192;DHT22;9728;48.194;16.346;2023-06-14T20:52:38;27.20;39.90
19192;DHT22;9728;48.194;16.346;2023-06-14T20:57:41;27.10;40.00
19192;DHT22;9728;48.194;16.346;2023-06-14T21:02:49;27.00;40.10
19192;DHT22;9728;48.194;16.346;2023-06-14T21:07:52;26.80;40.30
19192;DHT22;9728;48.194;16.346;2023-06-14T21:12:55;26.70;40.20
19192;DHT22;9728;48.194;16.346;2023-06-14T21:18:00;26.60;40.20
19192;DHT22;9728;48.194;16.346;2023-06-14T21:23:04;26.50;40.40
19192;DHT22;9728;48.194;16.346;2023-06-14T21:28:08;26.40;41.10
19192;DHT22;9728;48.194;16.346;2023-06-14T21:33:12;26.30;40.60
19192;DHT22;9728;48.194;16.346;2023-06-14T21:38:16;26.20;41.20
19192;DHT22;9728;48.194;16.346;2023-06-14T21:43:19;26.20;41.50
19192;DHT22;9728;48.194;16.346;2023-06-14T21:48:24;26.10;41.60
19192;DHT22;9728;48.194;16.346;2023-06-14T21:53:27;26.10;42.30
19192;DHT22;9728;48.194;16.346;2023-06-14T21:58:33;26.10;41.80
19192;DHT22;9728;48.194;16.346;2023-06-14T22:03:38;26.00;41.90
19192;DHT22;9728;48.194;16.346;2023-06-14T22:08:42;26.00;42.70
19192;DHT22;9728;48.194;16.346;2023-06-14T22:13:46;26.00;42.30
19192;DHT22;9728;48.194;16.346;2023-06-14T22:18:51;25.90;42.40
19192;DHT22;9728;48.194;16.346;2023-06-14T22:23:56;25.90;42.30
19192;DHT22;9728;48.194;16.346;2023-06-14T22:28:59;25.90;42.30
19192;DHT22;9728;48.194;16.346;2023-06-14T22:34:09;25.80;42.70
19192;DHT22;9728;48.194;16.346;2023-06-14T22:39:12;25.80;42.80
19192;DHT22;9728;48.194;16.346;2023-06-14T22:44:16;25.70;42.40
19192;DHT22;9728;48.194;16.346;2023-06-14T22:49:21;25.70;42.30
19192;DHT22;9728;48.194;16.346;2023-06-14T22:54:25;25.60;42.50
19192;DHT22;9728;48.194;16.346;2023-06-14T22:59:29;25.50;43.00
19192;DHT22;9728;48.194;16.346;2023-06-14T23:04:34;25.50;42.80
19192;DHT22;9728;48.194;16.346;2023-06-14T23:09:40;25.40;42.80
19192;DHT22;9728;48.194;16.346;2023-06-14T23:14:45;25.30;42.70
19192;DHT22;9728;48.194;16.346;2023-06-14T23:19:52;25.30;43.10
19192;DHT22;9728;48.194;16.346;2023-06-14T23:24:55;25.20;43.10
19192;DHT22;9728;48.194;16.346;2023-06-14T23:30:00;25.10;43.00
19192;DHT22;9728;48.194;16.346;2023-06-14T23:35:08;25.10;43.10
19192;DHT22;9728;48.194;16.346;2023-06-14T23:40:12;25.00;43.30
19192;DHT22;9728;48.194;16.346;2023-06-14T23:45:16;24.90;43.20
19192;DHT22;9728;48.194;16.346;2023-06-14T23:50:22;24.80;43.30
19192;DHT22;9728;48.194;16.346;2023-06-14T23:55:26;24.80;43.50
